sensor_id;sensor_type;location;lat;lon;timestamp;temperature;humidity
12819;DHT22;6474;53.474;9.894;2022-10-15T00:00:23;14.60;85.50
12819;DHT22;6474;53.474;9.894;2022-10-15T00:02:50;14.60;85.50
12819;DHT22;6474;53.474;9.894;2022-10-15T00:05:18;14.60;85.50
12819;DHT22;6474;53.474;9.894;2022-10-15T00:07:46;14.60;85.50
12819;DHT22;6474;53.474;9.894;2022-10-15T00:10:15;14.60;85.50
12819;DHT22;6474;53.474;9.894;2022-10-15T00:12:43;14.60;85.50
12819;DHT22;6474;53.474;9.894;2022-10-15T00:15:11;14.60;85.50
12819;DHT22;6474;53.474;9.894;2022-10-15T00:17:41;14.60;85.50
12819;DHT22;6474;53.474;9.894;2022-10-15T00:20:09;14.60;85.50
12819;DHT22;6474;53.474;9.894;2022-10-15T00:22:37;14.60;85.50
12819;DHT22;6474;53.474;9.894;2022-10-15T00:25:06;14.60;85.50
12819;DHT22;6474;53.474;9.894;2022-10-15T00:27:35;14.70;85.60
12819;DHT22;6474;53.474;9.894;2022-10-15T00:30:04;14.60;85.50
12819;DHT22;6474;53.474;9.894;2022-10-15T00:32:32;14.60;85.50
12819;DHT22;6474;53.474;9.894;2022-10-15T00:35:02;14.60;85.50
12819;DHT22;6474;53.474;9.894;2022-10-15T00:37:30;14.60;85.50
12819;DHT22;6474;53.474;9.894;2022-10-15T00:39:58;14.60;85.50
12819;DHT22;6474;53.474;9.894;2022-10-15T00:42:26;14.60;85.60
12819;DHT22;6474;53.474;9.894;2022-10-15T00:44:55;14.60;85.50
12819;DHT22;6474;53.474;9.894;2022-10-15T00:47:27;14.70;85.70
12819;DHT22;6474;53.474;9.894;2022-10-15T00:49:59;14.60;85.60
12819;DHT22;6474;53.474;9.894;2022-10-15T00:52:36;14.70;85.70
12819;DHT22;6474;53.474;9.894;2022-10-15T00:55:07;14.70;85.70
12819;DHT22;6474;53.474;9.894;2022-10-15T00:57:36;14.70;85.70
12819;DHT22;6474;53.474;9.894;2022-10-15T01:00:08;14.70;85.70
12819;DHT22;6474;53.474;9.894;2022-10-15T01:02:36;14.60;85.60
12819;DHT22;6474;53.474;9.894;2022-10-15T01:05:04;14.70;85.70
12819;DHT22;6474;53.474;9.894;2022-10-15T01:07:34;14.70;85.70
12819;DHT22;6474;53.474;9.894;2022-10-15T01:10:05;14.70;85.70
12819;DHT22;6474;53.474;9.894;2022-10-15T01:12:43;14.70;85.70
12819;DHT22;6474;53.474;9.894;2022-10-15T01:15:17;14.60;85.70
12819;DHT22;6474;53.474;9.894;2022-10-15T01:17:48;14.60;85.60
12819;DHT22;6474;53.474;9.894;2022-10-15T01:20:43;14.60;85.60
12819;DHT22;6474;53.474;9.894;2022-10-15T01:23:40;14.60;85.70
12819;DHT22;6474;53.474;9.894;2022-10-15T01:26:35;14.60;85.70
12819;DHT22;6474;53.474;9.894;2022-10-15T01:29:18;14.60;85.70
12819;DHT22;6474;53.474;9.894;2022-10-15T01:31:56;14.60;85.70
12819;DHT22;6474;53.474;9.894;2022-10-15T01:34:32;14.60;85.80
12819;DHT22;6474;53.474;9.894;2022-10-15T01:37:07;14.60;85.70
12819;DHT22;6474;53.474;9.894;2022-10-15T01:39:40;14.50;85.60
12819;DHT22;6474;53.474;9.894;2022-10-15T01:42:14;14.50;85.70
12819;DHT22;6474;53.474;9.894;2022-10-15T01:44:46;14.50;85.80
12819;DHT22;6474;53.474;9.894;2022-10-15T01:47:21;14.50;85.80
12819;DHT22;6474;53.474;9.894;2022-10-15T01:49:52;14.50;85.80
12819;DHT22;6474;53.474;9.894;2022-10-15T01:52:22;14.40;85.70
12819;DHT22;6474;53.474;9.894;2022-10-15T01:54:52;14.40;85.70
12819;DHT22;6474;53.474;9.894;2022-10-15T01:57:23;14.40;85.80
12819;DHT22;6474;53.474;9.894;2022-10-15T01:59:52;14.40;85.80
12819;DHT22;6474;53.474;9.894;2022-10-15T02:02:22;14.40;85.80
12819;DHT22;6474;53.474;9.894;2022-10-15T02:04:50;14.40;85.80
12819;DHT22;6474;53.474;9.894;2022-10-15T02:07:27;14.40;85.90
12819;DHT22;6474;53.474;9.894;2022-10-15T02:10:05;14.30;85.80
12819;DHT22;6474;53.474;9.894;2022-10-15T02:12:41;14.30;85.80
12819;DHT22;6474;53.474;9.894;2022-10-15T02:15:17;14.30;85.90
12819;DHT22;6474;53.474;9.894;2022-10-15T02:17:58;14.30;86.00
12819;DHT22;6474;53.474;9.894;2022-10-15T02:20:30;14.20;85.90
12819;DHT22;6474;53.474;9.894;2022-10-15T02:23:02;14.20;85.90
12819;DHT22;6474;53.474;9.894;2022-10-15T02:25:32;14.30;86.00
12819;DHT22;6474;53.474;9.894;2022-10-15T02:28:03;14.20;85.90
12819;DHT22;6474;53.474;9.894;2022-10-15T02:30:32;14.30;86.00
12819;DHT22;6474;53.474;9.894;2022-10-15T02:33:02;14.20;85.90
12819;DHT22;6474;53.474;9.894;2022-10-15T02:35:32;14.20;85.80
12819;DHT22;6474;53.474;9.894;2022-10-15T02:38:02;14.20;85.70
12819;DHT22;6474;53.474;9.894;2022-10-15T02:40:33;14.10;85.60
12819;DHT22;6474;53.474;9.894;2022-10-15T02:43:04;14.00;85.60
12819;DHT22;6474;53.474;9.894;2022-10-15T02:45:33;14.00;85.70
12819;DHT22;6474;53.474;9.894;2022-10-15T02:48:02;13.90;85.70
12819;DHT22;6474;53.474;9.894;2022-10-15T02:50:30;13.90;85.80
12819;DHT22;6474;53.474;9.894;2022-10-15T02:52:58;13.90;85.90
12819;DHT22;6474;53.474;9.894;2022-10-15T02:55:26;13.80;85.80
12819;DHT22;6474;53.474;9.894;2022-10-15T02:57:54;13.80;85.90
12819;DHT22;6474;53.474;9.894;2022-10-15T03:00:22;13.70;85.70
12819;DHT22;6474;53.474;9.894;2022-10-15T03:02:50;13.80;85.90
12819;DHT22;6474;53.474;9.894;2022-10-15T03:05:19;13.70;85.90
12819;DHT22;6474;53.474;9.894;2022-10-15T03:07:47;13.70;86.00
12819;DHT22;6474;53.474;9.894;2022-10-15T03:10:15;13.70;86.00
12819;DHT22;6474;53.474;9.894;2022-10-15T03:12:45;13.70;86.10
12819;DHT22;6474;53.474;9.894;2022-10-15T03:15:12;13.70;86.10
12819;DHT22;6474;53.474;9.894;2022-10-15T03:17:40;13.70;86.10
12819;DHT22;6474;53.474;9.894;2022-10-15T03:20:08;13.70;86.10
12819;DHT22;6474;53.474;9.894;2022-10-15T03:22:37;13.70;86.10
12819;DHT22;6474;53.474;9.894;2022-10-15T03:25:06;13.60;86.10
12819;DHT22;6474;53.474;9.894;2022-10-15T03:27:33;13.70;86.30
12819;DHT22;6474;53.474;9.894;2022-10-15T03:30:01;13.70;86.20
12819;DHT22;6474;53.474;9.894;2022-10-15T03:32:29;13.70;86.20
12819;DHT22;6474;53.474;9.894;2022-10-15T03:35:02;13.70;86.10
12819;DHT22;6474;53.474;9.894;2022-10-15T03:37:30;13.70;86.10
12819;DHT22;6474;53.474;9.894;2022-10-15T03:39:59;13.70;86.10
12819;DHT22;6474;53.474;9.894;2022-10-15T03:42:26;13.70;86.20
12819;DHT22;6474;53.474;9.894;2022-10-15T03:44:54;13.70;86.20
12819;DHT22;6474;53.474;9.894;2022-10-15T03:47:22;13.70;86.20
12819;DHT22;6474;53.474;9.894;2022-10-15T03:49:50;13.70;86.30
12819;DHT22;6474;53.474;9.894;2022-10-15T03:52:17;13.70;86.20
12819;DHT22;6474;53.474;9.894;2022-10-15T03:54:45;13.80;86.20
12819;DHT22;6474;53.474;9.894;2022-10-15T03:57:14;13.80;86.20
12819;DHT22;6474;53.474;9.894;2022-10-15T03:59:42;13.80;86.10
12819;DHT22;6474;53.474;9.894;2022-10-15T04:02:15;13.80;86.10
12819;DHT22;6474;53.474;9.894;2022-10-15T04:04:43;13.80;86.10
12819;DHT22;6474;53.474;9.894;2022-10-15T04:07:11;13.80;86.10
12819;DHT22;6474;53.474;9.894;2022-10-15T04:09:38;13.80;86.10
12819;DHT22;6474;53.474;9.894;2022-10-15T04:12:06;13.80;86.10
12819;DHT22;6474;53.474;9.894;2022-10-15T04:14:36;13.80;86.10
12819;DHT22;6474;53.474;9.894;2022-10-15T04:17:03;13.80;86.90
12819;DHT22;6474;53.474;9.894;2022-10-15T04:19:31;13.80;86.10
12819;DHT22;6474;53.474;9.894;2022-10-15T04:21:59;13.80;86.10
12819;DHT22;6474;53.474;9.894;2022-10-15T04:24:27;13.80;86.10
12819;DHT22;6474;53.474;9.894;2022-10-15T04:26:54;13.80;86.20
12819;DHT22;6474;53.474;9.894;2022-10-15T04:29:22;13.80;86.20
12819;DHT22;6474;53.474;9.894;2022-10-15T04:31:52;13.80;86.20
12819;DHT22;6474;53.474;9.894;2022-10-15T04:34:19;13.80;86.20
12819;DHT22;6474;53.474;9.894;2022-10-15T04:36:47;13.70;86.10
12819;DHT22;6474;53.474;9.894;2022-10-15T04:39:15;13.80;86.20
12819;DHT22;6474;53.474;9.894;2022-10-15T04:41:43;13.70;86.10
12819;DHT22;6474;53.474;9.894;2022-10-15T04:44:11;13.70;86.20
12819;DHT22;6474;53.474;9.894;2022-10-15T04:46:39;13.70;86.30
12819;DHT22;6474;53.474;9.894;2022-10-15T04:49:08;13.70;86.30
12819;DHT22;6474;53.474;9.894;2022-10-15T04:51:35;13.70;86.30
12819;DHT22;6474;53.474;9.894;2022-10-15T04:54:04;13.70;86.30
12819;DHT22;6474;53.474;9.894;2022-10-15T04:56:31;13.70;86.30
12819;DHT22;6474;53.474;9.894;2022-10-15T04:58:59;13.70;86.40
12819;DHT22;6474;53.474;9.894;2022-10-15T05:01:27;13.60;86.20
12819;DHT22;6474;53.474;9.894;2022-10-15T05:03:55;13.60;86.20
12819;DHT22;6474;53.474;9.894;2022-10-15T05:06:24;13.70;86.30
12819;DHT22;6474;53.474;9.894;2022-10-15T05:08:52;13.60;86.20
12819;DHT22;6474;53.474;9.894;2022-10-15T05:11:21;13.60;86.20
12819;DHT22;6474;53.474;9.894;2022-10-15T05:13:50;13.60;86.20
12819;DHT22;6474;53.474;9.894;2022-10-15T05:16:19;13.60;86.30
12819;DHT22;6474;53.474;9.894;2022-10-15T05:18:49;13.60;86.20
12819;DHT22;6474;53.474;9.894;2022-10-15T05:21:18;13.60;86.20
12819;DHT22;6474;53.474;9.894;2022-10-15T05:23:47;13.60;86.30
12819;DHT22;6474;53.474;9.894;2022-10-15T05:26:18;13.50;86.10
12819;DHT22;6474;53.474;9.894;2022-10-15T05:28:47;13.50;86.20
12819;DHT22;6474;53.474;9.894;2022-10-15T05:31:16;13.50;86.10
12819;DHT22;6474;53.474;9.894;2022-10-15T05:33:45;13.50;86.10
12819;DHT22;6474;53.474;9.894;2022-10-15T05:36:14;13.50;86.10
12819;DHT22;6474;53.474;9.894;2022-10-15T05:38:43;13.50;86.10
12819;DHT22;6474;53.474;9.894;2022-10-15T05:41:12;13.50;86.20
12819;DHT22;6474;53.474;9.894;2022-10-15T05:43:40;13.50;86.10
12819;DHT22;6474;53.474;9.894;2022-10-15T05:46:08;13.50;86.10
12819;DHT22;6474;53.474;9.894;2022-10-15T05:48:36;13.50;86.10
12819;DHT22;6474;53.474;9.894;2022-10-15T05:51:06;13.40;86.00
12819;DHT22;6474;53.474;9.894;2022-10-15T05:53:34;13.40;86.10
12819;DHT22;6474;53.474;9.894;2022-10-15T05:56:03;13.40;86.00
12819;DHT22;6474;53.474;9.894;2022-10-15T05:58:36;13.40;86.00
12819;DHT22;6474;53.474;9.894;2022-10-15T06:01:05;13.40;86.00
12819;DHT22;6474;53.474;9.894;2022-10-15T06:03:33;13.40;86.00
12819;DHT22;6474;53.474;9.894;2022-10-15T06:06:01;13.40;86.00
12819;DHT22;6474;53.474;9.894;2022-10-15T06:08:29;13.40;86.00
12819;DHT22;6474;53.474;9.894;2022-10-15T06:11:01;13.40;86.00
12819;DHT22;6474;53.474;9.894;2022-10-15T06:13:37;13.40;86.00
12819;DHT22;6474;53.474;9.894;2022-10-15T06:16:06;13.50;86.10
12819;DHT22;6474;53.474;9.894;2022-10-15T06:18:35;13.50;86.10
12819;DHT22;6474;53.474;9.894;2022-10-15T06:21:04;13.50;86.10
12819;DHT22;6474;53.474;9.894;2022-10-15T06:23:32;13.50;86.10
12819;DHT22;6474;53.474;9.894;2022-10-15T06:26:02;13.50;86.20
12819;DHT22;6474;53.474;9.894;2022-10-15T06:28:30;13.60;86.20
12819;DHT22;6474;53.474;9.894;2022-10-15T06:30:59;13.60;86.20
12819;DHT22;6474;53.474;9.894;2022-10-15T06:33:28;13.60;86.20
12819;DHT22;6474;53.474;9.894;2022-10-15T06:36:00;13.60;86.20
12819;DHT22;6474;53.474;9.894;2022-10-15T06:38:28;13.60;86.20
12819;DHT22;6474;53.474;9.894;2022-10-15T06:40:56;13.70;86.30
12819;DHT22;6474;53.474;9.894;2022-10-15T06:43:24;13.70;86.30
12819;DHT22;6474;53.474;9.894;2022-10-15T06:45:59;13.70;86.30
12819;DHT22;6474;53.474;9.894;2022-10-15T06:48:27;13.70;86.30
12819;DHT22;6474;53.474;9.894;2022-10-15T06:50:57;13.70;86.30
12819;DHT22;6474;53.474;9.894;2022-10-15T06:53:24;13.70;86.30
12819;DHT22;6474;53.474;9.894;2022-10-15T06:55:55;13.70;86.20
12819;DHT22;6474;53.474;9.894;2022-10-15T06:58:23;13.80;86.30
12819;DHT22;6474;53.474;9.894;2022-10-15T07:00:51;13.70;86.20
12819;DHT22;6474;53.474;9.894;2022-10-15T07:03:20;13.80;86.30
12819;DHT22;6474;53.474;9.894;2022-10-15T07:05:48;13.80;86.30
12819;DHT22;6474;53.474;9.894;2022-10-15T07:08:16;13.80;86.30
12819;DHT22;6474;53.474;9.894;2022-10-15T07:10:45;13.90;86.20
12819;DHT22;6474;53.474;9.894;2022-10-15T07:13:12;13.90;86.10
12819;DHT22;6474;53.474;9.894;2022-10-15T07:15:40;13.90;86.10
12819;DHT22;6474;53.474;9.894;2022-10-15T07:18:10;13.90;86.90
12819;DHT22;6474;53.474;9.894;2022-10-15T07:20:39;14.00;86.30
12819;DHT22;6474;53.474;9.894;2022-10-15T07:23:07;14.00;86.40
12819;DHT22;6474;53.474;9.894;2022-10-15T07:25:34;14.10;86.30
12819;DHT22;6474;53.474;9.894;2022-10-15T07:28:02;14.10;86.20
12819;DHT22;6474;53.474;9.894;2022-10-15T07:30:30;14.20;86.20
12819;DHT22;6474;53.474;9.894;2022-10-15T07:32:58;14.20;86.10
12819;DHT22;6474;53.474;9.894;2022-10-15T07:35:26;14.20;86.10
12819;DHT22;6474;53.474;9.894;2022-10-15T07:37:59;14.30;86.10
12819;DHT22;6474;53.474;9.894;2022-10-15T07:40:27;14.30;86.10
12819;DHT22;6474;53.474;9.894;2022-10-15T07:42:57;14.30;86.00
12819;DHT22;6474;53.474;9.894;2022-10-15T07:45:26;14.40;86.10
12819;DHT22;6474;53.474;9.894;2022-10-15T07:47:54;14.40;86.10
12819;DHT22;6474;53.474;9.894;2022-10-15T07:50:22;14.40;86.10
12819;DHT22;6474;53.474;9.894;2022-10-15T07:52:50;14.50;86.20
12819;DHT22;6474;53.474;9.894;2022-10-15T07:55:19;14.50;86.20
12819;DHT22;6474;53.474;9.894;2022-10-15T07:57:47;14.60;86.20
12819;DHT22;6474;53.474;9.894;2022-10-15T08:00:14;14.60;86.20
12819;DHT22;6474;53.474;9.894;2022-10-15T08:02:42;14.70;86.20
12819;DHT22;6474;53.474;9.894;2022-10-15T08:05:11;14.70;86.10
12819;DHT22;6474;53.474;9.894;2022-10-15T08:07:38;14.70;86.10
12819;DHT22;6474;53.474;9.894;2022-10-15T08:10:07;14.80;86.20
12819;DHT22;6474;53.474;9.894;2022-10-15T08:12:37;14.80;86.10
12819;DHT22;6474;53.474;9.894;2022-10-15T08:15:06;14.90;86.20
12819;DHT22;6474;53.474;9.894;2022-10-15T08:17:34;14.90;86.00
12819;DHT22;6474;53.474;9.894;2022-10-15T08:20:02;14.90;85.90
12819;DHT22;6474;53.474;9.894;2022-10-15T08:22:32;14.90;85.80
12819;DHT22;6474;53.474;9.894;2022-10-15T08:24:59;15.00;85.90
12819;DHT22;6474;53.474;9.894;2022-10-15T08:27:27;15.00;85.90
12819;DHT22;6474;53.474;9.894;2022-10-15T08:29:56;15.00;85.80
12819;DHT22;6474;53.474;9.894;2022-10-15T08:32:24;14.90;85.80
12819;DHT22;6474;53.474;9.894;2022-10-15T08:34:52;14.90;85.70
12819;DHT22;6474;53.474;9.894;2022-10-15T08:37:20;14.90;86.40
12819;DHT22;6474;53.474;9.894;2022-10-15T08:39:47;14.90;85.60
12819;DHT22;6474;53.474;9.894;2022-10-15T08:42:18;14.80;85.60
12819;DHT22;6474;53.474;9.894;2022-10-15T08:44:50;14.80;85.60
12819;DHT22;6474;53.474;9.894;2022-10-15T08:47:28;14.80;85.70
12819;DHT22;6474;53.474;9.894;2022-10-15T08:49:58;14.70;85.60
12819;DHT22;6474;53.474;9.894;2022-10-15T08:52:34;14.80;85.70
12819;DHT22;6474;53.474;9.894;2022-10-15T08:55:08;14.70;85.70
12819;DHT22;6474;53.474;9.894;2022-10-15T08:57:40;14.70;85.70
12819;DHT22;6474;53.474;9.894;2022-10-15T09:00:13;14.70;85.90
12819;DHT22;6474;53.474;9.894;2022-10-15T09:02:48;14.70;85.90
12819;DHT22;6474;53.474;9.894;2022-10-15T09:05:29;14.70;85.90
12819;DHT22;6474;53.474;9.894;2022-10-15T09:08:03;14.80;86.00
12819;DHT22;6474;53.474;9.894;2022-10-15T09:10:38;14.90;86.00
12819;DHT22;6474;53.474;9.894;2022-10-15T09:13:11;14.90;85.90
12819;DHT22;6474;53.474;9.894;2022-10-15T09:15:50;14.90;85.90
12819;DHT22;6474;53.474;9.894;2022-10-15T09:18:22;15.00;86.00
12819;DHT22;6474;53.474;9.894;2022-10-15T09:20:51;15.00;86.00
12819;DHT22;6474;53.474;9.894;2022-10-15T09:23:25;15.10;86.10
12819;DHT22;6474;53.474;9.894;2022-10-15T09:26:01;15.10;86.00
12819;DHT22;6474;53.474;9.894;2022-10-15T09:28:38;15.10;85.90
12819;DHT22;6474;53.474;9.894;2022-10-15T09:31:09;15.10;85.80
12819;DHT22;6474;53.474;9.894;2022-10-15T09:33:45;15.20;86.00
12819;DHT22;6474;53.474;9.894;2022-10-15T09:36:22;15.20;85.90
12819;DHT22;6474;53.474;9.894;2022-10-15T09:39:00;15.30;86.00
12819;DHT22;6474;53.474;9.894;2022-10-15T09:41:36;15.30;85.90
12819;DHT22;6474;53.474;9.894;2022-10-15T09:44:09;15.30;85.90
12819;DHT22;6474;53.474;9.894;2022-10-15T09:46:43;15.40;85.90
12819;DHT22;6474;53.474;9.894;2022-10-15T09:49:15;15.40;85.90
12819;DHT22;6474;53.474;9.894;2022-10-15T09:51:51;15.40;86.60
12819;DHT22;6474;53.474;9.894;2022-10-15T09:54:25;15.50;85.90
12819;DHT22;6474;53.474;9.894;2022-10-15T09:56:58;15.50;85.90
12819;DHT22;6474;53.474;9.894;2022-10-15T09:59:26;15.60;85.90
12819;DHT22;6474;53.474;9.894;2022-10-15T10:01:59;15.60;85.90
12819;DHT22;6474;53.474;9.894;2022-10-15T10:04:30;15.60;85.90
12819;DHT22;6474;53.474;9.894;2022-10-15T10:07:01;15.70;86.00
12819;DHT22;6474;53.474;9.894;2022-10-15T10:09:32;15.70;86.00
12819;DHT22;6474;53.474;9.894;2022-10-15T10:12:03;15.80;86.00
12819;DHT22;6474;53.474;9.894;2022-10-15T10:14:33;15.80;86.00
12819;DHT22;6474;53.474;9.894;2022-10-15T10:17:13;15.80;85.80
12819;DHT22;6474;53.474;9.894;2022-10-15T10:19:45;15.80;85.80
12819;DHT22;6474;53.474;9.894;2022-10-15T10:22:28;15.90;85.90
12819;DHT22;6474;53.474;9.894;2022-10-15T10:24:56;15.90;85.90
12819;DHT22;6474;53.474;9.894;2022-10-15T10:27:26;15.90;85.90
12819;DHT22;6474;53.474;9.894;2022-10-15T10:29:56;15.90;85.80
12819;DHT22;6474;53.474;9.894;2022-10-15T10:32:28;15.90;85.80
12819;DHT22;6474;53.474;9.894;2022-10-15T10:34:59;16.00;86.00
12819;DHT22;6474;53.474;9.894;2022-10-15T10:37:27;16.00;85.90
12819;DHT22;6474;53.474;9.894;2022-10-15T10:39:56;16.00;85.90
12819;DHT22;6474;53.474;9.894;2022-10-15T10:42:30;16.00;85.90
12819;DHT22;6474;53.474;9.894;2022-10-15T10:45:15;16.10;86.10
12819;DHT22;6474;53.474;9.894;2022-10-15T10:47:44;16.10;86.10
12819;DHT22;6474;53.474;9.894;2022-10-15T10:50:31;16.20;86.90
12819;DHT22;6474;53.474;9.894;2022-10-15T10:53:18;16.30;86.30
12819;DHT22;6474;53.474;9.894;2022-10-15T10:55:47;16.40;86.30
12819;DHT22;6474;53.474;9.894;2022-10-15T10:58:18;16.40;86.20
12819;DHT22;6474;53.474;9.894;2022-10-15T11:00:52;16.50;86.30
12819;DHT22;6474;53.474;9.894;2022-10-15T11:03:31;16.60;86.20
12819;DHT22;6474;53.474;9.894;2022-10-15T11:06:33;16.70;86.20
12819;DHT22;6474;53.474;9.894;2022-10-15T11:09:12;16.80;86.30
12819;DHT22;6474;53.474;9.894;2022-10-15T11:11:51;16.90;86.40
12819;DHT22;6474;53.474;9.894;2022-10-15T11:14:26;17.00;86.50
12819;DHT22;6474;53.474;9.894;2022-10-15T11:17:03;17.10;86.60
12819;DHT22;6474;53.474;9.894;2022-10-15T11:19:40;17.10;86.40
12819;DHT22;6474;53.474;9.894;2022-10-15T11:22:45;17.20;86.30
12819;DHT22;6474;53.474;9.894;2022-10-15T11:25:21;17.30;86.30
12819;DHT22;6474;53.474;9.894;2022-10-15T11:28:01;17.40;86.20
12819;DHT22;6474;53.474;9.894;2022-10-15T11:30:41;17.40;86.00
12819;DHT22;6474;53.474;9.894;2022-10-15T11:33:23;17.40;85.70
12819;DHT22;6474;53.474;9.894;2022-10-15T11:35:59;17.50;85.70
12819;DHT22;6474;53.474;9.894;2022-10-15T11:38:40;17.50;85.60
12819;DHT22;6474;53.474;9.894;2022-10-15T11:41:18;17.50;85.50
12819;DHT22;6474;53.474;9.894;2022-10-15T11:43:58;17.50;85.40
12819;DHT22;6474;53.474;9.894;2022-10-15T11:46:37;17.50;86.00
12819;DHT22;6474;53.474;9.894;2022-10-15T11:49:23;17.40;85.30
12819;DHT22;6474;53.474;9.894;2022-10-15T11:52:12;17.40;85.50
12819;DHT22;6474;53.474;9.894;2022-10-15T11:54:47;17.40;85.70
12819;DHT22;6474;53.474;9.894;2022-10-15T11:57:23;17.40;85.80
12819;DHT22;6474;53.474;9.894;2022-10-15T11:59:54;17.50;85.90
12819;DHT22;6474;53.474;9.894;2022-10-15T12:02:29;17.70;86.10
12819;DHT22;6474;53.474;9.894;2022-10-15T12:05:00;17.80;86.00
12819;DHT22;6474;53.474;9.894;2022-10-15T12:07:36;17.80;85.60
12819;DHT22;6474;53.474;9.894;2022-10-15T12:10:17;17.90;85.70
12819;DHT22;6474;53.474;9.894;2022-10-15T12:12:52;17.80;85.60
12819;DHT22;6474;53.474;9.894;2022-10-15T12:15:29;17.70;85.50
12819;DHT22;6474;53.474;9.894;2022-10-15T12:18:03;17.70;85.60
12819;DHT22;6474;53.474;9.894;2022-10-15T12:20:40;17.70;85.60
12819;DHT22;6474;53.474;9.894;2022-10-15T12:23:22;17.70;85.50
12819;DHT22;6474;53.474;9.894;2022-10-15T12:25:52;17.70;85.50
12819;DHT22;6474;53.474;9.894;2022-10-15T12:28:22;17.70;85.50
12819;DHT22;6474;53.474;9.894;2022-10-15T12:30:58;17.70;85.50
12819;DHT22;6474;53.474;9.894;2022-10-15T12:33:35;17.80;85.70
12819;DHT22;6474;53.474;9.894;2022-10-15T12:36:05;17.80;85.60
12819;DHT22;6474;53.474;9.894;2022-10-15T12:38:40;17.80;85.50
12819;DHT22;6474;53.474;9.894;2022-10-15T12:41:18;17.80;85.50
12819;DHT22;6474;53.474;9.894;2022-10-15T12:43:51;17.80;85.50
12819;DHT22;6474;53.474;9.894;2022-10-15T12:46:23;17.80;85.60
12819;DHT22;6474;53.474;9.894;2022-10-15T12:52:53;17.80;85.60
12819;DHT22;6474;53.474;9.894;2022-10-15T12:55:25;17.90;85.70
12819;DHT22;6474;53.474;9.894;2022-10-15T12:57:57;17.80;85.50
12819;DHT22;6474;53.474;9.894;2022-10-15T13:00:39;17.70;85.50
12819;DHT22;6474;53.474;9.894;2022-10-15T13:03:21;17.80;85.70
12819;DHT22;6474;53.474;9.894;2022-10-15T13:05:51;17.80;85.60
12819;DHT22;6474;53.474;9.894;2022-10-15T13:08:22;17.80;85.70
12819;DHT22;6474;53.474;9.894;2022-10-15T13:10:53;17.80;85.70
12819;DHT22;6474;53.474;9.894;2022-10-15T13:13:25;17.70;85.60
12819;DHT22;6474;53.474;9.894;2022-10-15T13:15:58;17.70;85.60
12819;DHT22;6474;53.474;9.894;2022-10-15T13:18:30;17.60;85.70
12819;DHT22;6474;53.474;9.894;2022-10-15T13:20:58;17.70;85.80
12819;DHT22;6474;53.474;9.894;2022-10-15T13:23:27;17.60;85.80
12819;DHT22;6474;53.474;9.894;2022-10-15T13:26:11;17.50;85.70
12819;DHT22;6474;53.474;9.894;2022-10-15T13:28:41;17.50;85.70
12819;DHT22;6474;53.474;9.894;2022-10-15T13:31:15;17.50;85.80
12819;DHT22;6474;53.474;9.894;2022-10-15T13:33:46;17.40;85.80
12819;DHT22;6474;53.474;9.894;2022-10-15T13:36:20;17.40;85.80
12819;DHT22;6474;53.474;9.894;2022-10-15T13:38:56;17.40;85.90
12819;DHT22;6474;53.474;9.894;2022-10-15T13:41:26;17.30;85.90
12819;DHT22;6474;53.474;9.894;2022-10-15T13:43:56;17.30;86.00
12819;DHT22;6474;53.474;9.894;2022-10-15T13:46:28;17.40;86.10
12819;DHT22;6474;53.474;9.894;2022-10-15T13:48:58;17.50;86.20
12819;DHT22;6474;53.474;9.894;2022-10-15T13:51:32;17.50;86.10
12819;DHT22;6474;53.474;9.894;2022-10-15T13:54:01;17.60;86.00
12819;DHT22;6474;53.474;9.894;2022-10-15T13:56:33;17.60;85.80
12819;DHT22;6474;53.474;9.894;2022-10-15T13:59:03;17.60;85.60
12819;DHT22;6474;53.474;9.894;2022-10-15T14:01:31;17.70;85.50
12819;DHT22;6474;53.474;9.894;2022-10-15T14:04:01;17.60;85.40
12819;DHT22;6474;53.474;9.894;2022-10-15T14:06:30;17.50;86.00
12819;DHT22;6474;53.474;9.894;2022-10-15T14:09:00;17.50;85.30
12819;DHT22;6474;53.474;9.894;2022-10-15T14:11:28;17.40;85.20
12819;DHT22;6474;53.474;9.894;2022-10-15T14:13:57;17.40;85.20
12819;DHT22;6474;53.474;9.894;2022-10-15T14:16:29;17.40;85.20
12819;DHT22;6474;53.474;9.894;2022-10-15T14:19:07;17.30;85.10
12819;DHT22;6474;53.474;9.894;2022-10-15T14:21:40;17.30;85.10
12819;DHT22;6474;53.474;9.894;2022-10-15T14:24:13;17.20;85.00
12819;DHT22;6474;53.474;9.894;2022-10-15T14:26:42;17.10;84.90
12819;DHT22;6474;53.474;9.894;2022-10-15T14:29:16;17.10;85.10
12819;DHT22;6474;53.474;9.894;2022-10-15T14:31:48;17.10;85.30
12819;DHT22;6474;53.474;9.894;2022-10-15T14:34:39;17.10;85.40
12819;DHT22;6474;53.474;9.894;2022-10-15T14:37:30;17.10;85.40
12819;DHT22;6474;53.474;9.894;2022-10-15T14:40:10;17.00;85.30
12819;DHT22;6474;53.474;9.894;2022-10-15T14:42:40;17.00;85.30
12819;DHT22;6474;53.474;9.894;2022-10-15T14:45:13;17.00;85.30
12819;DHT22;6474;53.474;9.894;2022-10-15T14:47:44;16.90;85.30
12819;DHT22;6474;53.474;9.894;2022-10-15T14:50:12;16.90;85.30
12819;DHT22;6474;53.474;9.894;2022-10-15T14:52:43;16.90;85.30
12819;DHT22;6474;53.474;9.894;2022-10-15T14:55:18;16.90;85.30
12819;DHT22;6474;53.474;9.894;2022-10-15T14:57:52;16.90;85.30
12819;DHT22;6474;53.474;9.894;2022-10-15T15:00:24;16.90;85.30
12819;DHT22;6474;53.474;9.894;2022-10-15T15:02:55;16.90;85.30
12819;DHT22;6474;53.474;9.894;2022-10-15T15:05:25;16.90;85.40
12819;DHT22;6474;53.474;9.894;2022-10-15T15:07:54;16.90;85.30
12819;DHT22;6474;53.474;9.894;2022-10-15T15:10:23;16.80;85.30
12819;DHT22;6474;53.474;9.894;2022-10-15T15:12:53;16.90;85.40
12819;DHT22;6474;53.474;9.894;2022-10-15T15:15:23;16.80;85.30
12819;DHT22;6474;53.474;9.894;2022-10-15T15:17:51;16.80;85.40
12819;DHT22;6474;53.474;9.894;2022-10-15T15:20:21;16.80;85.40
12819;DHT22;6474;53.474;9.894;2022-10-15T15:22:51;16.80;85.40
12819;DHT22;6474;53.474;9.894;2022-10-15T15:25:23;16.80;85.40
12819;DHT22;6474;53.474;9.894;2022-10-15T15:27:53;16.70;85.30
12819;DHT22;6474;53.474;9.894;2022-10-15T15:30:23;16.70;85.30
12819;DHT22;6474;53.474;9.894;2022-10-15T15:32:51;16.70;85.30
12819;DHT22;6474;53.474;9.894;2022-10-15T15:35:23;16.60;85.30
12819;DHT22;6474;53.474;9.894;2022-10-15T15:37:52;16.60;85.30
12819;DHT22;6474;53.474;9.894;2022-10-15T15:40:20;16.60;85.40
12819;DHT22;6474;53.474;9.894;2022-10-15T15:42:48;16.50;85.40
12819;DHT22;6474;53.474;9.894;2022-10-15T15:45:19;16.50;85.30
12819;DHT22;6474;53.474;9.894;2022-10-15T15:47:48;16.50;85.30
12819;DHT22;6474;53.474;9.894;2022-10-15T15:50:17;16.50;85.40
12819;DHT22;6474;53.474;9.894;2022-10-15T15:52:47;16.40;85.30
12819;DHT22;6474;53.474;9.894;2022-10-15T15:55:15;16.40;85.40
12819;DHT22;6474;53.474;9.894;2022-10-15T15:57:43;16.40;85.50
12819;DHT22;6474;53.474;9.894;2022-10-15T16:00:12;16.30;85.50
12819;DHT22;6474;53.474;9.894;2022-10-15T16:02:40;16.30;85.60
12819;DHT22;6474;53.474;9.894;2022-10-15T16:05:10;16.30;85.70
12819;DHT22;6474;53.474;9.894;2022-10-15T16:07:42;16.20;85.60
12819;DHT22;6474;53.474;9.894;2022-10-15T16:10:11;16.20;85.60
12819;DHT22;6474;53.474;9.894;2022-10-15T16:12:42;16.20;85.60
12819;DHT22;6474;53.474;9.894;2022-10-15T16:15:12;16.10;85.50